CDVK1: Caney River Near Cedar Vale, KS

Data processed at Mon Mar 25 2019 23:44


All information presented herein is the property of the government of the United States of America and may be revised or deleted at any time without prior notice.
Dissemination of this information without the expressed written consent of the Public Affairs Office, Tulsa District U.S. Army Corps of Engineers is strictly prohibited.
These data are gathered electronically and, as presented, have not undergone any form of quality control. These data are not guaranteed to be valid or correct.
Go to home page.
Go to station list.
Go to home page.

Upstream stations:

Downstream station:
Previous Day
Next Day
Current Day
    
SHEF ID:       CDVK1     CANEY R NR CEDAR VALE, KS
STATION TYPE:  
Regulating: Stage =    20.00, Flow =     8318

               PRECIP     STAGE  RIV-FLOW   VOLTAGE  BAT-LOAD
                   in        ft       cfs      volt      volt
              Ccp-Rev   Ccp-Rev   Ccp-Rev   Ccp-Rev   Ccp-Rev
(US/Central)
03/25 00:00      0.00     11.15       176     12.73     12.57
03/25 01:00      0.00     11.14       173     12.65     12.57
03/25 02:00      0.00     11.13       170     12.65     12.57
03/25 03:00      0.00     11.12       167     12.65     12.57
03/25 04:00      0.00     11.11       164     12.65     12.49
03/25 05:00      0.00     11.11       164     12.65     12.49
03/25 06:00      0.00     11.10       161     12.65     12.49
03/25 07:00      0.00     11.09       158     12.65     12.49
03/25 08:00      0.00     11.09       158     12.57     12.41
03/25 09:00      0.00     11.08       156     12.65     12.41
03/25 10:00      0.00     11.05       147     12.65     12.41
03/25 11:00      0.00     11.02       138     12.81     12.49
03/25 12:00      0.00     11.02       138     13.05     12.65
03/25 13:00      0.00     11.07       153     13.13     12.89
03/25 14:00      0.00     11.07       153     13.60     12.97
03/25 15:00      0.00     11.05       147     13.60     13.29
03/25 16:00      0.00     11.04       144     13.29     13.21
03/25 17:00      0.00     11.06       150     13.21     13.05
03/25 18:00      0.00     11.06       150     13.05     12.97
03/25 19:00      0.00     11.05       147     12.89     12.89
03/25 20:00      0.00     11.05       147     12.81     12.73
03/25 21:00      0.00     11.05       147     12.73     12.65
03/25 22:00      0.00     11.04       144     12.73     12.57
03/25 23:00      0.00     11.04       144     12.65     12.57